VTD146 LTFH-LTAL
Flight info
| Callsign | VTD146 |
|---|---|
| Flight time | 1h 33m |
| Altitude | 10000 |
| Route | BAFRA W86 SIN W90 INB |
| Aircraft | DA42/L-SDEFGRY/C |
Departure
| Time | 2026-05-07 11:49 |
|---|---|
| Airport | Samsun-Çarşamba Airport (LTFH) |
Arrival
| Time | 2026-05-07 13:22 |
|---|---|
| Airport | Kastamonu Airport (LTAL) |
| Time | Latitude | Longitude | Altitude | Speed | Heading |
|---|---|---|---|---|---|
| 2026-05-07 11:23 | 41.25922 | 36.55415 | 15 ft | 0 kts | 224° |
| 2026-05-07 11:42 | 41.25918 | 36.55415 | 15 ft | 3 kts | 134° |
| 2026-05-07 11:42 | 41.25934 | 36.55432 | 19 ft | 4 kts | 47° |
| 2026-05-07 11:43 | 41.25966 | 36.55472 | 20 ft | 8 kts | 27° |
| 2026-05-07 11:43 | 41.26017 | 36.55435 | 22 ft | 12 kts | 311° |
| 2026-05-07 11:43 | 41.26081 | 36.55343 | 21 ft | 15 kts | 314° |
| 2026-05-07 11:43 | 41.26151 | 36.55243 | 22 ft | 13 kts | 317° |
| 2026-05-07 11:44 | 41.26228 | 36.55241 | 26 ft | 14 kts | 45° |
| 2026-05-07 11:44 | 41.26292 | 36.55324 | 27 ft | 11 kts | 43° |
| 2026-05-07 11:44 | 41.26303 | 36.55338 | 28 ft | 0 kts | 44° |
| 2026-05-07 11:47 | 41.26303 | 36.55339 | 28 ft | 1 kts | 44° |
| 2026-05-07 11:47 | 41.26341 | 36.55392 | 28 ft | 10 kts | 55° |
| 2026-05-07 11:48 | 41.26337 | 36.55470 | 25 ft | 6 kts | 134° |
| 2026-05-07 11:48 | 41.26336 | 36.55473 | 24 ft | 0 kts | 134° |
| 2026-05-07 11:48 | 41.26237 | 36.55609 | 23 ft | 53 kts | 134° |
| 2026-05-07 11:49 | 41.25862 | 36.56116 | 77 ft | 90 kts | 133° |
| 2026-05-07 11:49 | 41.25411 | 36.56715 | 387 ft | 94 kts | 130° |
| 2026-05-07 11:49 | 41.24952 | 36.57348 | 685 ft | 95 kts | 131° |
| 2026-05-07 11:49 | 41.24506 | 36.57991 | 1004 ft | 95 kts | 129° |
| 2026-05-07 11:50 | 41.24059 | 36.58633 | 1330 ft | 94 kts | 127° |
| 2026-05-07 11:50 | 41.23609 | 36.59273 | 1625 ft | 98 kts | 129° |
| 2026-05-07 11:50 | 41.23133 | 36.59938 | 1955 ft | 100 kts | 128° |
| 2026-05-07 11:50 | 41.22660 | 36.60621 | 2387 ft | 101 kts | 131° |
| 2026-05-07 11:51 | 41.22165 | 36.61303 | 2718 ft | 103 kts | 130° |
| 2026-05-07 11:51 | 41.21664 | 36.61998 | 3084 ft | 105 kts | 131° |
| 2026-05-07 11:51 | 41.21155 | 36.62698 | 3433 ft | 106 kts | 134° |
| 2026-05-07 11:51 | 41.20637 | 36.63414 | 3739 ft | 108 kts | 134° |
| 2026-05-07 11:52 | 41.20116 | 36.64140 | 4080 ft | 109 kts | 135° |
| 2026-05-07 11:52 | 41.19590 | 36.64872 | 4400 ft | 110 kts | 136° |
| 2026-05-07 11:52 | 41.19059 | 36.65614 | 4704 ft | 113 kts | 136° |
| 2026-05-07 11:52 | 41.18522 | 36.66362 | 5044 ft | 112 kts | 136° |
| 2026-05-07 11:53 | 41.18135 | 36.67261 | 5376 ft | 115 kts | 101° |
| 2026-05-07 11:53 | 41.18257 | 36.68301 | 5707 ft | 116 kts | 58° |
| 2026-05-07 11:53 | 41.18786 | 36.69091 | 6011 ft | 116 kts | 38° |
| 2026-05-07 11:53 | 41.19377 | 36.69830 | 6315 ft | 118 kts | 40° |
| 2026-05-07 11:54 | 41.19961 | 36.70567 | 6654 ft | 116 kts | 37° |
| 2026-05-07 11:54 | 41.20553 | 36.71305 | 6978 ft | 116 kts | 41° |
| 2026-05-07 11:54 | 41.21135 | 36.72036 | 7286 ft | 116 kts | 40° |
| 2026-05-07 11:54 | 41.21730 | 36.72785 | 7601 ft | 117 kts | 41° |
| 2026-05-07 11:55 | 41.22324 | 36.73534 | 7889 ft | 120 kts | 39° |
| 2026-05-07 11:55 | 41.22927 | 36.74294 | 8218 ft | 119 kts | 41° |
| 2026-05-07 11:55 | 41.23516 | 36.75039 | 8531 ft | 119 kts | 41° |
| 2026-05-07 11:55 | 41.24115 | 36.75795 | 8854 ft | 118 kts | 41° |
| 2026-05-07 11:56 | 41.24711 | 36.76548 | 9167 ft | 120 kts | 39° |
| 2026-05-07 11:56 | 41.25344 | 36.77267 | 9481 ft | 119 kts | 25° |
| 2026-05-07 11:56 | 41.26115 | 36.77508 | 9810 ft | 112 kts | 351° |
| 2026-05-07 11:56 | 41.26830 | 36.77175 | 10114 ft | 109 kts | 321° |
| 2026-05-07 11:57 | 41.27374 | 36.76479 | 10403 ft | 109 kts | 313° |
| 2026-05-07 11:57 | 41.27902 | 36.75746 | 10691 ft | 110 kts | 312° |
| 2026-05-07 11:57 | 41.28423 | 36.75021 | 11025 ft | 107 kts | 312° |
| 2026-05-07 11:57 | 41.28940 | 36.74297 | 11332 ft | 108 kts | 313° |
| 2026-05-07 11:58 | 41.29471 | 36.73558 | 11596 ft | 112 kts | 313° |
| 2026-05-07 11:58 | 41.30008 | 36.72809 | 11911 ft | 111 kts | 314° |
| 2026-05-07 11:58 | 41.30547 | 36.72059 | 12167 ft | 117 kts | 314° |
| 2026-05-07 11:58 | 41.31169 | 36.71198 | 12163 ft | 140 kts | 314° |
| 2026-05-07 11:59 | 41.31885 | 36.70205 | 12164 ft | 156 kts | 314° |
| 2026-05-07 11:59 | 41.32648 | 36.69142 | 12167 ft | 161 kts | 313° |
| 2026-05-07 11:59 | 41.33426 | 36.68054 | 12168 ft | 163 kts | 313° |
| 2026-05-07 11:59 | 41.34216 | 36.66948 | 12167 ft | 166 kts | 313° |
| 2026-05-07 12:00 | 41.35014 | 36.65833 | 12163 ft | 167 kts | 313° |
| 2026-05-07 12:00 | 41.35813 | 36.64718 | 12164 ft | 166 kts | 313° |
| 2026-05-07 12:00 | 41.36610 | 36.63605 | 12163 ft | 166 kts | 313° |
| 2026-05-07 12:00 | 41.37408 | 36.62492 | 12163 ft | 166 kts | 313° |
| 2026-05-07 12:01 | 41.38202 | 36.61383 | 12166 ft | 165 kts | 313° |
| 2026-05-07 12:01 | 41.38983 | 36.60291 | 12166 ft | 165 kts | 313° |
| 2026-05-07 12:01 | 41.39774 | 36.59185 | 12166 ft | 164 kts | 313° |
| 2026-05-07 12:01 | 41.40564 | 36.58080 | 12165 ft | 165 kts | 313° |
| 2026-05-07 12:02 | 41.41359 | 36.56968 | 12166 ft | 166 kts | 313° |
| 2026-05-07 12:02 | 41.42158 | 36.55849 | 12164 ft | 167 kts | 313° |
| 2026-05-07 12:02 | 41.42958 | 36.54729 | 12164 ft | 166 kts | 313° |
| 2026-05-07 12:02 | 41.43754 | 36.53615 | 12169 ft | 166 kts | 313° |
| 2026-05-07 12:03 | 41.44553 | 36.52495 | 12169 ft | 166 kts | 313° |
| 2026-05-07 12:03 | 41.45351 | 36.51376 | 12169 ft | 167 kts | 313° |
| 2026-05-07 12:03 | 41.46156 | 36.50247 | 12165 ft | 168 kts | 313° |
| 2026-05-07 12:03 | 41.46964 | 36.49113 | 12166 ft | 169 kts | 313° |
| 2026-05-07 12:04 | 41.47778 | 36.47971 | 12164 ft | 170 kts | 313° |
| 2026-05-07 12:04 | 41.48590 | 36.46830 | 12163 ft | 169 kts | 313° |
| 2026-05-07 12:04 | 41.49396 | 36.45698 | 12165 ft | 168 kts | 313° |
| 2026-05-07 12:04 | 41.50198 | 36.44571 | 12166 ft | 167 kts | 313° |
| 2026-05-07 12:05 | 41.50994 | 36.43452 | 12166 ft | 166 kts | 313° |
| 2026-05-07 12:05 | 41.51790 | 36.42333 | 12166 ft | 166 kts | 313° |
| 2026-05-07 12:05 | 41.52578 | 36.41224 | 12166 ft | 166 kts | 313° |
| 2026-05-07 12:05 | 41.53376 | 36.40100 | 12167 ft | 166 kts | 313° |
| 2026-05-07 12:06 | 41.54171 | 36.38982 | 12167 ft | 165 kts | 313° |
| 2026-05-07 12:06 | 41.54960 | 36.37871 | 12171 ft | 165 kts | 313° |
| 2026-05-07 12:06 | 41.55749 | 36.36759 | 12170 ft | 165 kts | 313° |
| 2026-05-07 12:06 | 41.56539 | 36.35644 | 12170 ft | 166 kts | 313° |
| 2026-05-07 12:07 | 41.57173 | 36.34370 | 12166 ft | 166 kts | 293° |
| 2026-05-07 12:07 | 41.57407 | 36.32871 | 12164 ft | 167 kts | 272° |
| 2026-05-07 12:07 | 41.57232 | 36.31334 | 12167 ft | 168 kts | 259° |
| 2026-05-07 12:07 | 41.56960 | 36.29836 | 12167 ft | 168 kts | 259° |
| 2026-05-07 12:08 | 41.56682 | 36.28325 | 12167 ft | 167 kts | 259° |
| 2026-05-07 12:08 | 41.56405 | 36.26819 | 12167 ft | 167 kts | 259° |
| 2026-05-07 12:08 | 41.56132 | 36.25310 | 12166 ft | 167 kts | 258° |
| 2026-05-07 12:08 | 41.55854 | 36.23798 | 12167 ft | 168 kts | 258° |
| 2026-05-07 12:09 | 41.55573 | 36.22282 | 12172 ft | 168 kts | 259° |
| 2026-05-07 12:09 | 41.55297 | 36.20767 | 12168 ft | 167 kts | 259° |
| 2026-05-07 12:09 | 41.55027 | 36.19256 | 12163 ft | 168 kts | 258° |
| 2026-05-07 12:09 | 41.54749 | 36.17746 | 12162 ft | 168 kts | 258° |
| 2026-05-07 12:10 | 41.54475 | 36.16251 | 12165 ft | 169 kts | 258° |
| 2026-05-07 12:10 | 41.54194 | 36.14727 | 12165 ft | 169 kts | 258° |
| 2026-05-07 12:10 | 41.53913 | 36.13198 | 12164 ft | 170 kts | 258° |
| 2026-05-07 12:10 | 41.53633 | 36.11671 | 12166 ft | 170 kts | 258° |
| 2026-05-07 12:11 | 41.53352 | 36.10148 | 12163 ft | 169 kts | 258° |
| 2026-05-07 12:11 | 41.53073 | 36.08626 | 12162 ft | 168 kts | 259° |
| 2026-05-07 12:11 | 41.52795 | 36.07114 | 12164 ft | 168 kts | 259° |
| 2026-05-07 12:11 | 41.52520 | 36.05604 | 12162 ft | 168 kts | 258° |
| 2026-05-07 12:12 | 41.52237 | 36.04093 | 12164 ft | 168 kts | 258° |
| 2026-05-07 12:12 | 41.51957 | 36.02582 | 12163 ft | 168 kts | 259° |
| 2026-05-07 12:12 | 41.51678 | 36.01075 | 12159 ft | 167 kts | 259° |
| 2026-05-07 12:12 | 41.51405 | 35.99575 | 12162 ft | 166 kts | 259° |
| 2026-05-07 12:13 | 41.51134 | 35.98074 | 12162 ft | 166 kts | 262° |
| 2026-05-07 12:13 | 41.51113 | 35.96554 | 12162 ft | 163 kts | 281° |
| 2026-05-07 12:13 | 41.51483 | 35.95127 | 12166 ft | 164 kts | 298° |
| 2026-05-07 12:13 | 41.52028 | 35.93784 | 12168 ft | 164 kts | 299° |
| 2026-05-07 12:14 | 41.52576 | 35.92449 | 12168 ft | 164 kts | 299° |
| 2026-05-07 12:14 | 41.53123 | 35.91116 | 12169 ft | 164 kts | 299° |
| 2026-05-07 12:14 | 41.53662 | 35.89800 | 12168 ft | 164 kts | 299° |
| 2026-05-07 12:14 | 41.54207 | 35.88466 | 12168 ft | 164 kts | 299° |
| 2026-05-07 12:15 | 41.54755 | 35.87126 | 12166 ft | 165 kts | 299° |
| 2026-05-07 12:15 | 41.55303 | 35.85785 | 12166 ft | 164 kts | 299° |
| 2026-05-07 12:15 | 41.55850 | 35.84444 | 12164 ft | 164 kts | 299° |
| 2026-05-07 12:15 | 41.56395 | 35.83111 | 12163 ft | 163 kts | 299° |
| 2026-05-07 12:16 | 41.56937 | 35.81782 | 12169 ft | 163 kts | 299° |
| 2026-05-07 12:16 | 41.57479 | 35.80449 | 12164 ft | 163 kts | 299° |
| 2026-05-07 12:16 | 41.58022 | 35.79120 | 12169 ft | 163 kts | 299° |
| 2026-05-07 12:16 | 41.58565 | 35.77789 | 12165 ft | 163 kts | 299° |
| 2026-05-07 12:17 | 41.59110 | 35.76452 | 12167 ft | 165 kts | 299° |
| 2026-05-07 12:17 | 41.59661 | 35.75097 | 12167 ft | 167 kts | 298° |
| 2026-05-07 12:17 | 41.60216 | 35.73729 | 12163 ft | 168 kts | 299° |
| 2026-05-07 12:17 | 41.60773 | 35.72355 | 12168 ft | 168 kts | 299° |
| 2026-05-07 12:18 | 41.61334 | 35.70980 | 12166 ft | 168 kts | 299° |
| 2026-05-07 12:18 | 41.61891 | 35.69613 | 12161 ft | 167 kts | 298° |
| 2026-05-07 12:18 | 41.62437 | 35.68265 | 12160 ft | 167 kts | 298° |
| 2026-05-07 12:18 | 41.62993 | 35.66895 | 12160 ft | 168 kts | 298° |
| 2026-05-07 12:19 | 41.63550 | 35.65522 | 12162 ft | 167 kts | 298° |
| 2026-05-07 12:19 | 41.64104 | 35.64156 | 12160 ft | 167 kts | 299° |
| 2026-05-07 12:19 | 41.64653 | 35.62800 | 12159 ft | 165 kts | 298° |
| 2026-05-07 12:19 | 41.65202 | 35.61443 | 12160 ft | 166 kts | 298° |
| 2026-05-07 12:20 | 41.65749 | 35.60094 | 12161 ft | 164 kts | 299° |
| 2026-05-07 12:20 | 41.66292 | 35.58754 | 12161 ft | 163 kts | 298° |
| 2026-05-07 12:20 | 41.66832 | 35.57419 | 12161 ft | 163 kts | 298° |
| 2026-05-07 12:20 | 41.67374 | 35.56078 | 12158 ft | 164 kts | 298° |
| 2026-05-07 12:21 | 41.67919 | 35.54729 | 12157 ft | 166 kts | 298° |
| 2026-05-07 12:21 | 41.68467 | 35.53372 | 12158 ft | 166 kts | 298° |
| 2026-05-07 12:21 | 41.69016 | 35.52015 | 12157 ft | 165 kts | 298° |
| 2026-05-07 12:21 | 41.69555 | 35.50681 | 12157 ft | 165 kts | 297° |
| 2026-05-07 12:22 | 41.70099 | 35.49331 | 12157 ft | 165 kts | 298° |
| 2026-05-07 12:22 | 41.70647 | 35.47974 | 12157 ft | 166 kts | 298° |
| 2026-05-07 12:22 | 41.71196 | 35.46610 | 12159 ft | 167 kts | 298° |
| 2026-05-07 12:22 | 41.71749 | 35.45237 | 12156 ft | 168 kts | 298° |
| 2026-05-07 12:23 | 41.72115 | 35.44327 | 12156 ft | 168 kts | 298° |
| 2026-05-07 12:23 | 41.72670 | 35.42948 | 12157 ft | 168 kts | 298° |
| 2026-05-07 12:23 | 41.73225 | 35.41569 | 12156 ft | 168 kts | 298° |
| 2026-05-07 12:23 | 41.73779 | 35.40191 | 12156 ft | 168 kts | 298° |
| 2026-05-07 12:24 | 41.74335 | 35.38808 | 12155 ft | 168 kts | 298° |
| 2026-05-07 12:24 | 41.74890 | 35.37427 | 12155 ft | 168 kts | 298° |
| 2026-05-07 12:24 | 41.75446 | 35.36044 | 12155 ft | 168 kts | 298° |
| 2026-05-07 12:24 | 41.76000 | 35.34663 | 12155 ft | 169 kts | 298° |
| 2026-05-07 12:25 | 41.76556 | 35.33278 | 12152 ft | 169 kts | 298° |
| 2026-05-07 12:25 | 41.77111 | 35.31895 | 12152 ft | 169 kts | 298° |
| 2026-05-07 12:25 | 41.77667 | 35.30508 | 12152 ft | 169 kts | 298° |
| 2026-05-07 12:25 | 41.78222 | 35.29122 | 12152 ft | 168 kts | 297° |
| 2026-05-07 12:26 | 41.78768 | 35.27759 | 12157 ft | 169 kts | 297° |
| 2026-05-07 12:26 | 41.79323 | 35.26373 | 12156 ft | 169 kts | 297° |
| 2026-05-07 12:26 | 41.79877 | 35.24987 | 12157 ft | 168 kts | 297° |
| 2026-05-07 12:26 | 41.80428 | 35.23611 | 12151 ft | 167 kts | 297° |
| 2026-05-07 12:27 | 41.80979 | 35.22235 | 12152 ft | 168 kts | 297° |
| 2026-05-07 12:27 | 41.81529 | 35.20857 | 12154 ft | 168 kts | 297° |
| 2026-05-07 12:27 | 41.82081 | 35.19474 | 12162 ft | 168 kts | 298° |
| 2026-05-07 12:27 | 41.82633 | 35.18092 | 12162 ft | 167 kts | 298° |
| 2026-05-07 12:28 | 41.83354 | 35.16879 | 12157 ft | 168 kts | 317° |
| 2026-05-07 12:28 | 41.84358 | 35.16080 | 12155 ft | 170 kts | 338° |
| 2026-05-07 12:28 | 41.85475 | 35.15543 | 12158 ft | 170 kts | 338° |
| 2026-05-07 12:28 | 41.86588 | 35.15023 | 12156 ft | 169 kts | 338° |
| 2026-05-07 12:29 | 41.87705 | 35.14501 | 12154 ft | 170 kts | 338° |
| 2026-05-07 12:29 | 41.88805 | 35.13985 | 12162 ft | 170 kts | 339° |
| 2026-05-07 12:29 | 41.89920 | 35.13460 | 12163 ft | 169 kts | 339° |
| 2026-05-07 12:29 | 41.91036 | 35.12933 | 12163 ft | 170 kts | 339° |
| 2026-05-07 12:30 | 41.92152 | 35.12408 | 12161 ft | 170 kts | 339° |
| 2026-05-07 12:30 | 41.93268 | 35.11881 | 12162 ft | 170 kts | 338° |
| 2026-05-07 12:30 | 41.94383 | 35.11354 | 12162 ft | 170 kts | 339° |
| 2026-05-07 12:30 | 41.95501 | 35.10826 | 12156 ft | 170 kts | 337° |
| 2026-05-07 12:31 | 41.96607 | 35.10305 | 12156 ft | 171 kts | 337° |
| 2026-05-07 12:31 | 41.97728 | 35.09777 | 12157 ft | 171 kts | 338° |
| 2026-05-07 12:31 | 41.98856 | 35.09244 | 12165 ft | 172 kts | 338° |
| 2026-05-07 12:31 | 41.99992 | 35.08707 | 12164 ft | 173 kts | 337° |
| 2026-05-07 12:32 | 42.01022 | 35.07905 | 12161 ft | 172 kts | 317° |
| 2026-05-07 12:32 | 42.01761 | 35.06662 | 12163 ft | 171 kts | 297° |
| 2026-05-07 12:32 | 42.02121 | 35.05151 | 12158 ft | 170 kts | 277° |
| 2026-05-07 12:32 | 42.02109 | 35.03567 | 12157 ft | 169 kts | 266° |
| 2026-05-07 12:33 | 42.01943 | 35.00391 | 12162 ft | 170 kts | 266° |
| 2026-05-07 12:33 | 42.01865 | 34.98831 | 12167 ft | 169 kts | 267° |
| 2026-05-07 12:33 | 42.01783 | 34.97257 | 12158 ft | 169 kts | 266° |
| 2026-05-07 12:34 | 42.01700 | 34.95677 | 12154 ft | 169 kts | 266° |
| 2026-05-07 12:34 | 42.01624 | 34.94099 | 12155 ft | 169 kts | 266° |
| 2026-05-07 12:34 | 42.01544 | 34.92527 | 12156 ft | 169 kts | 266° |
| 2026-05-07 12:34 | 42.01463 | 34.90953 | 12156 ft | 168 kts | 266° |
| 2026-05-07 12:35 | 42.01382 | 34.89389 | 12155 ft | 167 kts | 266° |
| 2026-05-07 12:35 | 42.01301 | 34.87830 | 12153 ft | 166 kts | 266° |
| 2026-05-07 12:35 | 42.01222 | 34.86280 | 12150 ft | 166 kts | 266° |
| 2026-05-07 12:35 | 42.01144 | 34.84739 | 12150 ft | 165 kts | 266° |
| 2026-05-07 12:36 | 42.01072 | 34.83198 | 12151 ft | 165 kts | 266° |
| 2026-05-07 12:36 | 42.00999 | 34.81657 | 12150 ft | 166 kts | 266° |
| 2026-05-07 12:36 | 42.00925 | 34.80109 | 12152 ft | 166 kts | 266° |
| 2026-05-07 12:36 | 42.00850 | 34.78559 | 12150 ft | 167 kts | 266° |
| 2026-05-07 12:37 | 42.00776 | 34.77002 | 12156 ft | 167 kts | 265° |
| 2026-05-07 12:37 | 42.00701 | 34.75450 | 12156 ft | 166 kts | 265° |
| 2026-05-07 12:37 | 42.00626 | 34.73924 | 12154 ft | 166 kts | 265° |
| 2026-05-07 12:37 | 42.00551 | 34.72380 | 12155 ft | 165 kts | 265° |
| 2026-05-07 12:38 | 42.00474 | 34.70834 | 12156 ft | 166 kts | 265° |
| 2026-05-07 12:38 | 42.00398 | 34.69278 | 12156 ft | 167 kts | 265° |
| 2026-05-07 12:38 | 42.00322 | 34.67710 | 12155 ft | 168 kts | 265° |
| 2026-05-07 12:38 | 42.00246 | 34.66144 | 12149 ft | 168 kts | 265° |
| 2026-05-07 12:39 | 42.00168 | 34.64577 | 12149 ft | 168 kts | 265° |
| 2026-05-07 12:39 | 42.00091 | 34.63012 | 12149 ft | 168 kts | 265° |
| 2026-05-07 12:39 | 42.00013 | 34.61443 | 12149 ft | 168 kts | 265° |
| 2026-05-07 12:39 | 41.99935 | 34.59875 | 12149 ft | 168 kts | 265° |
| 2026-05-07 12:40 | 41.99857 | 34.58311 | 12148 ft | 168 kts | 265° |
| 2026-05-07 12:40 | 41.99779 | 34.56749 | 12149 ft | 167 kts | 265° |
| 2026-05-07 12:40 | 41.99700 | 34.55187 | 12143 ft | 168 kts | 265° |
| 2026-05-07 12:40 | 41.99622 | 34.53625 | 12143 ft | 168 kts | 265° |
| 2026-05-07 12:41 | 41.99543 | 34.52058 | 12144 ft | 168 kts | 265° |
| 2026-05-07 12:41 | 41.99464 | 34.50496 | 12146 ft | 167 kts | 265° |
| 2026-05-07 12:41 | 41.99385 | 34.48935 | 12146 ft | 168 kts | 265° |
| 2026-05-07 12:41 | 41.99305 | 34.47371 | 12146 ft | 168 kts | 265° |
| 2026-05-07 12:42 | 41.99227 | 34.45829 | 12146 ft | 167 kts | 265° |
| 2026-05-07 12:42 | 41.99146 | 34.44251 | 12146 ft | 167 kts | 265° |
| 2026-05-07 12:42 | 41.99067 | 34.42713 | 12146 ft | 167 kts | 265° |
| 2026-05-07 12:42 | 41.98988 | 34.41159 | 12146 ft | 167 kts | 265° |
| 2026-05-07 12:43 | 41.98907 | 34.39596 | 12146 ft | 167 kts | 265° |
| 2026-05-07 12:43 | 41.98826 | 34.38033 | 12146 ft | 168 kts | 265° |
| 2026-05-07 12:43 | 41.98746 | 34.36470 | 12146 ft | 168 kts | 265° |
| 2026-05-07 12:43 | 41.98665 | 34.34909 | 12143 ft | 167 kts | 265° |
| 2026-05-07 12:44 | 41.98583 | 34.33348 | 12143 ft | 167 kts | 265° |
| 2026-05-07 12:44 | 41.98502 | 34.31784 | 12146 ft | 168 kts | 264° |
| 2026-05-07 12:44 | 41.98419 | 34.30220 | 12146 ft | 168 kts | 264° |
| 2026-05-07 12:44 | 41.98337 | 34.28654 | 12146 ft | 168 kts | 264° |
| 2026-05-07 12:45 | 41.98255 | 34.27085 | 12146 ft | 168 kts | 264° |
| 2026-05-07 12:45 | 41.98172 | 34.25518 | 12146 ft | 168 kts | 264° |
| 2026-05-07 12:45 | 41.98090 | 34.23968 | 12146 ft | 168 kts | 264° |
| 2026-05-07 12:45 | 41.98007 | 34.22397 | 12147 ft | 168 kts | 264° |
| 2026-05-07 12:46 | 41.97924 | 34.20827 | 12144 ft | 168 kts | 264° |
| 2026-05-07 12:46 | 41.97840 | 34.19258 | 12144 ft | 168 kts | 264° |
| 2026-05-07 12:46 | 41.97756 | 34.17686 | 12145 ft | 169 kts | 264° |
| 2026-05-07 12:46 | 41.97672 | 34.16116 | 12144 ft | 168 kts | 264° |
| 2026-05-07 12:47 | 41.97587 | 34.14544 | 12155 ft | 169 kts | 264° |
| 2026-05-07 12:47 | 41.97503 | 34.12970 | 12146 ft | 168 kts | 264° |
| 2026-05-07 12:47 | 41.97420 | 34.11402 | 12149 ft | 169 kts | 264° |
| 2026-05-07 12:47 | 41.97334 | 34.09833 | 12148 ft | 168 kts | 263° |
| 2026-05-07 12:48 | 41.97250 | 34.08288 | 12143 ft | 168 kts | 263° |
| 2026-05-07 12:48 | 41.97164 | 34.06727 | 12138 ft | 166 kts | 263° |
| 2026-05-07 12:48 | 41.97081 | 34.05177 | 12144 ft | 167 kts | 263° |
| 2026-05-07 12:48 | 41.96994 | 34.03621 | 12144 ft | 167 kts | 263° |
| 2026-05-07 12:49 | 41.96909 | 34.02064 | 12141 ft | 166 kts | 263° |
| 2026-05-07 12:49 | 41.96823 | 34.00508 | 12146 ft | 168 kts | 263° |
| 2026-05-07 12:49 | 41.96736 | 33.98948 | 12144 ft | 167 kts | 263° |
| 2026-05-07 12:49 | 41.96653 | 33.97386 | 12142 ft | 168 kts | 264° |
| 2026-05-07 12:50 | 41.96568 | 33.95822 | 12153 ft | 167 kts | 263° |
| 2026-05-07 12:50 | 41.96480 | 33.94272 | 12146 ft | 166 kts | 263° |
| 2026-05-07 12:50 | 41.96393 | 33.92722 | 12138 ft | 166 kts | 263° |
| 2026-05-07 12:50 | 41.96305 | 33.91164 | 12144 ft | 168 kts | 264° |
| 2026-05-07 12:51 | 41.96219 | 33.89602 | 12146 ft | 167 kts | 263° |
| 2026-05-07 12:51 | 41.96132 | 33.88058 | 12150 ft | 168 kts | 264° |
| 2026-05-07 12:51 | 41.96044 | 33.86488 | 12152 ft | 169 kts | 263° |
| 2026-05-07 12:51 | 41.95955 | 33.84907 | 12149 ft | 170 kts | 264° |
| 2026-05-07 12:52 | 41.95866 | 33.83324 | 12149 ft | 170 kts | 263° |
| 2026-05-07 12:52 | 41.95776 | 33.81737 | 12147 ft | 170 kts | 263° |
| 2026-05-07 12:52 | 41.95686 | 33.80151 | 12147 ft | 170 kts | 264° |
| 2026-05-07 12:52 | 41.95596 | 33.78564 | 12153 ft | 170 kts | 263° |
| 2026-05-07 12:53 | 41.95505 | 33.76973 | 12156 ft | 171 kts | 263° |
| 2026-05-07 12:53 | 41.95413 | 33.75371 | 12156 ft | 172 kts | 263° |
| 2026-05-07 12:53 | 41.95179 | 33.73805 | 12150 ft | 171 kts | 247° |
| 2026-05-07 12:53 | 41.94554 | 33.72467 | 12148 ft | 169 kts | 226° |
| 2026-05-07 12:54 | 41.93610 | 33.71529 | 12142 ft | 169 kts | 206° |
| 2026-05-07 12:54 | 41.92496 | 33.71120 | 12149 ft | 170 kts | 186° |
| 2026-05-07 12:54 | 41.91310 | 33.71210 | 12148 ft | 171 kts | 175° |
| 2026-05-07 12:54 | 41.90133 | 33.71395 | 12146 ft | 169 kts | 177° |
| 2026-05-07 12:55 | 41.88972 | 33.71579 | 12147 ft | 168 kts | 177° |
| 2026-05-07 12:55 | 41.87795 | 33.71767 | 12133 ft | 171 kts | 176° |
| 2026-05-07 12:55 | 41.86610 | 33.71946 | 12131 ft | 172 kts | 175° |
| 2026-05-07 12:55 | 41.85426 | 33.72127 | 12138 ft | 171 kts | 177° |
| 2026-05-07 12:56 | 41.84236 | 33.72304 | 12135 ft | 174 kts | 176° |
| 2026-05-07 12:56 | 41.83034 | 33.72494 | 12125 ft | 174 kts | 175° |
| 2026-05-07 12:56 | 41.81837 | 33.72686 | 12129 ft | 172 kts | 176° |
| 2026-05-07 12:56 | 41.80646 | 33.72869 | 12128 ft | 172 kts | 176° |
| 2026-05-07 12:57 | 41.79457 | 33.73047 | 12128 ft | 171 kts | 177° |
| 2026-05-07 12:57 | 41.78277 | 33.73235 | 12116 ft | 171 kts | 176° |
| 2026-05-07 12:57 | 41.77097 | 33.73422 | 12113 ft | 171 kts | 177° |
| 2026-05-07 12:57 | 41.75924 | 33.73607 | 12117 ft | 170 kts | 177° |
| 2026-05-07 12:58 | 41.74749 | 33.73793 | 12123 ft | 171 kts | 175° |
| 2026-05-07 12:58 | 41.73565 | 33.73981 | 12115 ft | 171 kts | 176° |
| 2026-05-07 12:58 | 41.72379 | 33.74161 | 12118 ft | 173 kts | 176° |
| 2026-05-07 12:58 | 41.71198 | 33.74344 | 12115 ft | 172 kts | 176° |
| 2026-05-07 12:59 | 41.70014 | 33.74533 | 12124 ft | 171 kts | 176° |
| 2026-05-07 12:59 | 41.68831 | 33.74717 | 12121 ft | 172 kts | 176° |
| 2026-05-07 12:59 | 41.67643 | 33.74903 | 12116 ft | 172 kts | 176° |
| 2026-05-07 12:59 | 41.66451 | 33.75090 | 12113 ft | 172 kts | 176° |
| 2026-05-07 13:00 | 41.65262 | 33.75277 | 12115 ft | 172 kts | 177° |
| 2026-05-07 13:00 | 41.64074 | 33.75463 | 12114 ft | 172 kts | 176° |
| 2026-05-07 13:00 | 41.62887 | 33.75648 | 12113 ft | 172 kts | 176° |
| 2026-05-07 13:00 | 41.61699 | 33.75833 | 12111 ft | 172 kts | 176° |
| 2026-05-07 13:01 | 41.60515 | 33.76019 | 12113 ft | 171 kts | 177° |
| 2026-05-07 13:01 | 41.59334 | 33.76204 | 12112 ft | 171 kts | 176° |
| 2026-05-07 13:01 | 41.58154 | 33.76388 | 12109 ft | 170 kts | 177° |
| 2026-05-07 13:01 | 41.56984 | 33.76571 | 12105 ft | 169 kts | 176° |
| 2026-05-07 13:02 | 41.55811 | 33.76755 | 12101 ft | 170 kts | 176° |
| 2026-05-07 13:02 | 41.54618 | 33.76940 | 11945 ft | 175 kts | 176° |
| 2026-05-07 13:02 | 41.53414 | 33.77130 | 11724 ft | 174 kts | 175° |
| 2026-05-07 13:02 | 41.52212 | 33.77323 | 11485 ft | 174 kts | 175° |
| 2026-05-07 13:03 | 41.51018 | 33.77523 | 11299 ft | 171 kts | 175° |
| 2026-05-07 13:03 | 41.49860 | 33.77721 | 11128 ft | 168 kts | 175° |
| 2026-05-07 13:03 | 41.48709 | 33.77913 | 10973 ft | 165 kts | 175° |
| 2026-05-07 13:03 | 41.47581 | 33.78097 | 10827 ft | 162 kts | 175° |
| 2026-05-07 13:04 | 41.46470 | 33.78285 | 10677 ft | 160 kts | 175° |
| 2026-05-07 13:04 | 41.45373 | 33.78473 | 10531 ft | 158 kts | 175° |
| 2026-05-07 13:04 | 41.44281 | 33.78658 | 10386 ft | 157 kts | 175° |
| 2026-05-07 13:04 | 41.43198 | 33.78841 | 10244 ft | 157 kts | 175° |
| 2026-05-07 13:05 | 41.42116 | 33.79027 | 10100 ft | 157 kts | 175° |
| 2026-05-07 13:05 | 41.41035 | 33.79211 | 9954 ft | 156 kts | 175° |
| 2026-05-07 13:05 | 41.39963 | 33.79380 | 9821 ft | 154 kts | 176° |
| 2026-05-07 13:05 | 41.38907 | 33.79551 | 9688 ft | 152 kts | 176° |
| 2026-05-07 13:06 | 41.37856 | 33.79665 | 9569 ft | 150 kts | 178° |
| 2026-05-07 13:06 | 41.36817 | 33.79766 | 9462 ft | 150 kts | 178° |
| 2026-05-07 13:06 | 41.35777 | 33.79868 | 9436 ft | 148 kts | 178° |
| 2026-05-07 13:06 | 41.34753 | 33.79956 | 9428 ft | 146 kts | 185° |
| 2026-05-07 13:07 | 41.33851 | 33.79436 | 9437 ft | 141 kts | 218° |
| 2026-05-07 13:07 | 41.33132 | 33.78559 | 9438 ft | 140 kts | 225° |
| 2026-05-07 13:07 | 41.32431 | 33.77654 | 9439 ft | 141 kts | 224° |
| 2026-05-07 13:07 | 41.31724 | 33.76753 | 9437 ft | 141 kts | 224° |
| 2026-05-07 13:08 | 41.31143 | 33.75737 | 9433 ft | 143 kts | 252° |
| 2026-05-07 13:08 | 41.31244 | 33.74441 | 9438 ft | 145 kts | 297° |
| 2026-05-07 13:08 | 41.32027 | 33.73617 | 9442 ft | 150 kts | 341° |
| 2026-05-07 13:08 | 41.33054 | 33.73735 | 9440 ft | 153 kts | 25° |
| 2026-05-07 13:09 | 41.33820 | 33.74690 | 9431 ft | 154 kts | 59° |
| 2026-05-07 13:09 | 41.34230 | 33.75999 | 9437 ft | 154 kts | 73° |
| 2026-05-07 13:09 | 41.34517 | 33.77372 | 9440 ft | 155 kts | 78° |
| 2026-05-07 13:09 | 41.34683 | 33.78303 | 9435 ft | 156 kts | 78° |
| 2026-05-07 13:10 | 41.35013 | 33.80170 | 9432 ft | 157 kts | 71° |
| 2026-05-07 13:10 | 41.35707 | 33.81266 | 9377 ft | 159 kts | 27° |
| 2026-05-07 13:10 | 41.36749 | 33.81773 | 9310 ft | 161 kts | 13° |
| 2026-05-07 13:10 | 41.37842 | 33.82140 | 9240 ft | 163 kts | 12° |
| 2026-05-07 13:11 | 41.38961 | 33.82500 | 9108 ft | 168 kts | 12° |
| 2026-05-07 13:11 | 41.39733 | 33.82741 | 9016 ft | 169 kts | 11° |
| 2026-05-07 13:11 | 41.40870 | 33.83097 | 8894 ft | 171 kts | 11° |
| 2026-05-07 13:11 | 41.42430 | 33.83584 | 8722 ft | 173 kts | 11° |
| 2026-05-07 13:12 | 41.43204 | 33.83829 | 8635 ft | 173 kts | 11° |
| 2026-05-07 13:12 | 41.44372 | 33.84202 | 8506 ft | 173 kts | 11° |
| 2026-05-07 13:12 | 41.45542 | 33.84579 | 8369 ft | 172 kts | 12° |
| 2026-05-07 13:12 | 41.46705 | 33.84945 | 8253 ft | 171 kts | 12° |
| 2026-05-07 13:13 | 41.47888 | 33.85315 | 7967 ft | 175 kts | 11° |
| 2026-05-07 13:13 | 41.49072 | 33.85692 | 7681 ft | 174 kts | 12° |
| 2026-05-07 13:13 | 41.50251 | 33.86068 | 7396 ft | 174 kts | 11° |
| 2026-05-07 13:13 | 41.51422 | 33.86457 | 7104 ft | 173 kts | 11° |
| 2026-05-07 13:14 | 41.52581 | 33.86839 | 6865 ft | 171 kts | 11° |
| 2026-05-07 13:14 | 41.53702 | 33.87057 | 6830 ft | 152 kts | 349° |
| 2026-05-07 13:14 | 41.54597 | 33.86472 | 6847 ft | 142 kts | 316° |
| 2026-05-07 13:14 | 41.55127 | 33.85413 | 6835 ft | 138 kts | 286° |
| 2026-05-07 13:15 | 41.55176 | 33.84190 | 6841 ft | 133 kts | 253° |
| 2026-05-07 13:15 | 41.54700 | 33.83151 | 6828 ft | 133 kts | 220° |
| 2026-05-07 13:15 | 41.53838 | 33.82789 | 6839 ft | 134 kts | 188° |
| 2026-05-07 13:15 | 41.52883 | 33.82719 | 6767 ft | 140 kts | 185° |
| 2026-05-07 13:16 | 41.51882 | 33.82677 | 6625 ft | 147 kts | 185° |
| 2026-05-07 13:16 | 41.50841 | 33.82641 | 6468 ft | 151 kts | 185° |
| 2026-05-07 13:16 | 41.49791 | 33.82557 | 6313 ft | 151 kts | 190° |
| 2026-05-07 13:16 | 41.48749 | 33.82318 | 6136 ft | 153 kts | 193° |
| 2026-05-07 13:17 | 41.47702 | 33.82089 | 5964 ft | 153 kts | 190° |
| 2026-05-07 13:17 | 41.46643 | 33.81899 | 5787 ft | 155 kts | 189° |
| 2026-05-07 13:17 | 41.45571 | 33.81738 | 5613 ft | 156 kts | 189° |
| 2026-05-07 13:17 | 41.44492 | 33.81581 | 5421 ft | 151 kts | 189° |
| 2026-05-07 13:18 | 41.43507 | 33.81425 | 5247 ft | 134 kts | 189° |
| 2026-05-07 13:18 | 41.42667 | 33.81300 | 5223 ft | 112 kts | 191° |
| 2026-05-07 13:18 | 41.41971 | 33.81195 | 5196 ft | 99 kts | 187° |
| 2026-05-07 13:18 | 41.41267 | 33.81097 | 5117 ft | 104 kts | 184° |
| 2026-05-07 13:19 | 41.40553 | 33.80998 | 5053 ft | 105 kts | 185° |
| 2026-05-07 13:19 | 41.39830 | 33.80869 | 4949 ft | 105 kts | 188° |
| 2026-05-07 13:19 | 41.39106 | 33.80753 | 4917 ft | 105 kts | 188° |
| 2026-05-07 13:19 | 41.38384 | 33.80633 | 4835 ft | 106 kts | 188° |
| 2026-05-07 13:20 | 41.37647 | 33.80553 | 4641 ft | 106 kts | 187° |
| 2026-05-07 13:20 | 41.36941 | 33.80427 | 4481 ft | 102 kts | 187° |
| 2026-05-07 13:20 | 41.36233 | 33.80324 | 4317 ft | 100 kts | 189° |
| 2026-05-07 13:20 | 41.35550 | 33.80226 | 4130 ft | 97 kts | 187° |
| 2026-05-07 13:21 | 41.34880 | 33.80128 | 4062 ft | 99 kts | 185° |
| 2026-05-07 13:21 | 41.34194 | 33.80032 | 3867 ft | 98 kts | 194° |
| 2026-05-07 13:21 | 41.33511 | 33.79897 | 3745 ft | 103 kts | 188° |
| 2026-05-07 13:21 | 41.32815 | 33.79799 | 3597 ft | 99 kts | 189° |
| 2026-05-07 13:22 | 41.32144 | 33.79701 | 3505 ft | 94 kts | 188° |
| 2026-05-07 13:22 | 41.31558 | 33.79611 | 3497 ft | 69 kts | 187° |
| 2026-05-07 13:22 | 41.31223 | 33.79562 | 3494 ft | 26 kts | 185° |
| 2026-05-07 13:22 | 41.31166 | 33.79559 | 3495 ft | 9 kts | 48° |
| 2026-05-07 13:23 | 41.31246 | 33.79566 | 3493 ft | 13 kts | 2° |
| 2026-05-07 13:23 | 41.31349 | 33.79579 | 3492 ft | 19 kts | 5° |
| 2026-05-07 13:23 | 41.31520 | 33.79608 | 3497 ft | 26 kts | 6° |
| 2026-05-07 13:23 | 41.31654 | 33.79633 | 3494 ft | 13 kts | 33° |
| 2026-05-07 13:24 | 41.31690 | 33.79737 | 3496 ft | 12 kts | 92° |
| 2026-05-07 13:24 | 41.31688 | 33.79775 | 3496 ft | 0 kts | 97° |
| 2026-05-07 13:24 | 41.31688 | 33.79779 | 3496 ft | 4 kts | 98° |
| 2026-05-07 13:25 | 41.31700 | 33.79864 | 3490 ft | 10 kts | 36° |
| 2026-05-07 13:25 | 41.31714 | 33.79941 | 3488 ft | 7 kts | 152° |
| 2026-05-07 13:25 | 41.31709 | 33.79946 | 3488 ft | 0 kts | 147° |